createdAt,value
2022-12-04T00:01:24.332Z,53.87
2022-12-04T00:03:55.622Z,51.33
2022-12-04T00:06:24.618Z,48.10
2022-12-04T00:08:53.126Z,53.57
2022-12-04T00:11:22.097Z,53.27
2022-12-04T00:13:50.505Z,50.67
2022-12-04T00:16:19.968Z,52.20
2022-12-04T00:18:48.506Z,49.47
2022-12-04T00:21:21.415Z,48.43
2022-12-04T00:23:49.972Z,53.43
2022-12-04T00:26:18.773Z,53.57
2022-12-04T00:28:47.499Z,51.33
2022-12-04T00:31:16.702Z,48.00
2022-12-04T00:33:45.588Z,54.87
2022-12-04T00:36:16.795Z,49.90
2022-12-04T00:38:46.539Z,54.83
2022-12-04T00:41:15.604Z,49.93
2022-12-04T00:43:43.989Z,51.00
2022-12-04T00:46:12.621Z,51.10
2022-12-04T00:48:40.955Z,48.00
2022-12-04T00:51:10.427Z,49.60
2022-12-04T00:53:39.199Z,52.63
2022-12-04T00:56:09.746Z,46.30
2022-12-04T00:58:38.028Z,53.93
2022-12-04T01:01:07.510Z,55.50
2022-12-04T01:03:36.069Z,53.27
2022-12-04T01:06:04.808Z,53.07
2022-12-04T01:08:33.340Z,54.63
2022-12-04T01:11:01.971Z,50.07
2022-12-04T01:13:31.731Z,50.60
2022-12-04T01:16:00.245Z,55.03
2022-12-04T01:18:28.602Z,52.63
2022-12-04T01:20:56.961Z,53.07
2022-12-04T01:23:25.463Z,48.37
2022-12-04T01:25:54.329Z,51.33
2022-12-04T01:28:22.809Z,50.30
2022-12-04T01:31:00.668Z,53.73
2022-12-04T01:33:29.085Z,47.20
2022-12-04T01:35:57.977Z,52.10
2022-12-04T01:38:26.299Z,56.17
2022-12-04T01:40:54.637Z,55.90
2022-12-04T01:43:23.062Z,54.33
2022-12-04T01:45:51.652Z,53.70
2022-12-04T01:48:23.258Z,56.63
2022-12-04T01:50:52.212Z,59.47
2022-12-04T01:53:20.667Z,51.83
2022-12-04T01:55:49.052Z,53.57
2022-12-04T01:58:17.361Z,49.17
2022-12-04T02:00:49.749Z,54.23
2022-12-04T02:03:20.122Z,54.67
2022-12-04T02:05:50.112Z,52.90
2022-12-04T02:08:18.492Z,56.33
2022-12-04T02:10:50.881Z,56.87
2022-12-04T02:13:20.616Z,52.53
2022-12-04T02:15:50.307Z,54.63
2022-12-04T02:18:19.605Z,57.80
2022-12-04T02:20:48.755Z,59.07
2022-12-04T02:23:44.203Z,63.43
2022-12-04T02:26:18.415Z,58.87
2022-12-04T02:28:49.111Z,57.53
2022-12-04T02:31:19.011Z,60.40
2022-12-04T02:33:48.624Z,57.27
2022-12-04T02:36:18.473Z,58.70
2022-12-04T02:38:48.694Z,55.23
2022-12-04T02:41:18.209Z,59.70
2022-12-04T02:43:48.357Z,61.33
2022-12-04T02:46:17.980Z,60.57
2022-12-04T02:48:46.680Z,58.73
2022-12-04T02:51:15.383Z,58.43
2022-12-04T02:53:44.725Z,60.73
2022-12-04T02:56:13.847Z,61.47
2022-12-04T02:58:43.146Z,58.87
2022-12-04T03:01:20.594Z,57.73
2022-12-04T03:03:51.051Z,60.00
2022-12-04T03:06:19.337Z,62.53
2022-12-04T03:08:48.821Z,64.57
2022-12-04T03:11:17.283Z,63.27
2022-12-04T03:13:47.199Z,62.80
2022-12-04T03:16:17.785Z,60.90
2022-12-04T03:18:47.055Z,58.10
2022-12-04T03:21:16.408Z,59.33
2022-12-04T03:23:46.570Z,53.87
2022-12-04T03:26:17.060Z,62.33
2022-12-04T03:28:48.215Z,60.03
2022-12-04T03:31:17.936Z,57.13
2022-12-04T03:33:47.246Z,57.30
2022-12-04T03:36:15.986Z,55.93
2022-12-04T03:38:46.029Z,63.40
2022-12-04T03:41:15.971Z,60.40
2022-12-04T03:43:46.257Z,60.03
2022-12-04T03:46:15.815Z,62.13
2022-12-04T03:48:46.805Z,55.90
2022-12-04T03:51:16.538Z,62.00
2022-12-04T03:53:45.661Z,56.10
2022-12-04T03:56:15.465Z,58.93
2022-12-04T03:58:44.874Z,58.10
2022-12-04T04:01:13.671Z,57.67
2022-12-04T04:03:43.620Z,59.40
2022-12-04T04:06:14.201Z,53.57
2022-12-04T04:08:43.283Z,66.40
2022-12-04T04:11:12.698Z,56.37
2022-12-04T04:13:59.370Z,54.47
2022-12-04T04:16:46.030Z,58.13
2022-12-04T04:19:32.954Z,61.10
2022-12-04T04:22:20.302Z,58.23
2022-12-04T04:24:49.576Z,56.93
2022-12-04T04:27:18.046Z,57.17
2022-12-04T04:29:52.009Z,62.70
2022-12-04T04:32:21.310Z,56.43
2022-12-04T04:34:51.689Z,62.20
2022-12-04T04:37:24.206Z,60.37
2022-12-04T04:39:54.317Z,65.40
2022-12-04T04:42:23.412Z,63.23
2022-12-04T04:44:53.487Z,62.10
2022-12-04T04:47:24.483Z,62.57
2022-12-04T04:49:52.904Z,63.37
2022-12-04T04:52:22.803Z,57.40
2022-12-04T04:54:51.144Z,63.37
2022-12-04T04:57:27.627Z,61.37
2022-12-04T04:59:56.294Z,61.97
2022-12-04T05:02:24.932Z,63.13
2022-12-04T05:04:53.466Z,60.00
2022-12-04T05:07:23.168Z,56.90
2022-12-04T05:09:51.876Z,63.97
2022-12-04T05:12:20.316Z,63.67
2022-12-04T05:14:48.831Z,60.00
2022-12-04T05:17:17.333Z,62.63
2022-12-04T05:19:54.381Z,60.17
2022-12-04T05:22:24.757Z,64.17
2022-12-04T05:24:53.404Z,61.47
2022-12-04T05:27:21.844Z,60.83
2022-12-04T05:29:50.438Z,58.77
2022-12-04T05:32:18.943Z,58.67
2022-12-04T05:34:49.171Z,64.93
2022-12-04T05:37:17.611Z,60.53
2022-12-04T05:39:47.498Z,59.57
2022-12-04T05:42:15.919Z,61.27
2022-12-04T05:44:44.494Z,57.60
2022-12-04T05:47:13.062Z,61.57
2022-12-04T05:49:41.485Z,57.43
2022-12-04T05:52:10.613Z,59.53
2022-12-04T05:54:39.068Z,61.33
2022-12-04T05:57:08.736Z,59.27
2022-12-04T05:59:37.228Z,62.70
2022-12-04T06:02:05.615Z,59.47
2022-12-04T06:04:34.063Z,63.33
2022-12-04T06:07:02.455Z,65.43
2022-12-04T06:09:30.932Z,58.43
2022-12-04T06:11:59.412Z,61.23
2022-12-04T06:14:30.421Z,61.57
2022-12-04T06:17:01.066Z,60.00
2022-12-04T06:19:32.066Z,60.40
2022-12-04T06:22:00.448Z,62.03
2022-12-04T06:24:29.241Z,59.60
2022-12-04T06:27:26.633Z,62.73
2022-12-04T06:29:47.795Z,59.20
2022-12-04T06:32:21.246Z,61.43
2022-12-04T06:34:51.980Z,61.77
2022-12-04T06:37:20.316Z,58.23
2022-12-04T06:39:49.041Z,57.77
2022-12-04T06:42:17.467Z,62.30
2022-12-04T06:44:47.162Z,59.10
2022-12-04T06:47:15.671Z,64.10
2022-12-04T06:49:45.993Z,59.63
2022-12-04T06:52:14.359Z,66.23
2022-12-04T06:54:43.241Z,61.87
2022-12-04T06:57:11.702Z,59.07
2022-12-04T06:59:40.129Z,58.83
2022-12-04T07:02:10.976Z,61.47
2022-12-04T07:04:39.450Z,59.27
2022-12-04T07:07:10.206Z,61.97
2022-12-04T07:13:30.196Z,62.50
2022-12-04T07:16:15.836Z,58.20
2022-12-04T07:19:01.107Z,66.90
2022-12-04T07:21:30.161Z,60.43
2022-12-04T07:23:58.879Z,60.37
2022-12-04T07:26:27.562Z,61.07
2022-12-04T07:28:56.042Z,64.60
2022-12-04T07:31:24.913Z,64.13
2022-12-04T07:33:54.698Z,60.97
2022-12-04T07:36:23.187Z,58.70
2022-12-04T07:38:51.723Z,65.07
2022-12-04T07:41:20.116Z,62.63
2022-12-04T07:43:48.604Z,63.67
2022-12-04T07:46:17.525Z,62.07
2022-12-04T07:48:45.890Z,62.47
2022-12-04T07:51:16.088Z,66.13
2022-12-04T07:53:44.485Z,62.90
2022-12-04T07:56:13.016Z,55.60
2022-12-04T07:58:41.961Z,60.10
2022-12-04T08:01:11.411Z,64.37
2022-12-04T08:03:45.209Z,59.67
2022-12-04T08:06:17.299Z,61.93
2022-12-04T08:08:45.729Z,65.57
2022-12-04T08:11:14.791Z,58.73
2022-12-04T08:13:43.346Z,61.13
2022-12-04T08:16:12.061Z,63.23
2022-12-04T08:18:41.508Z,67.83
2022-12-04T08:21:10.287Z,65.60
2022-12-04T08:23:40.317Z,55.37
2022-12-04T08:26:08.796Z,59.83
2022-12-04T08:28:37.434Z,59.77
2022-12-04T08:31:05.912Z,62.20
2022-12-04T08:33:34.558Z,61.20
2022-12-04T08:36:03.311Z,58.87
2022-12-04T08:38:31.872Z,56.63
2022-12-04T08:41:02.698Z,59.07
2022-12-04T08:43:31.231Z,59.67
2022-12-04T08:45:59.635Z,59.47
2022-12-04T08:48:28.228Z,52.73
2022-12-04T08:50:56.795Z,60.67
2022-12-04T08:53:25.196Z,62.00
2022-12-04T08:55:53.673Z,64.53
2022-12-04T08:58:23.443Z,58.90
2022-12-04T09:00:51.850Z,59.23
2022-12-04T09:03:23.678Z,61.77
2022-12-04T09:06:00.252Z,59.97
2022-12-04T09:08:28.661Z,55.90
2022-12-04T09:10:57.034Z,56.20
2022-12-04T09:13:26.801Z,60.20
2022-12-04T09:15:55.208Z,60.13
2022-12-04T09:18:23.708Z,57.70
2022-12-04T09:20:56.904Z,59.07
2022-12-04T09:23:25.272Z,57.17
2022-12-04T09:25:53.625Z,52.93
2022-12-04T09:28:22.049Z,55.77
2022-12-04T09:31:00.042Z,55.10
2022-12-04T09:33:28.496Z,56.97
2022-12-04T09:35:57.205Z,55.43
2022-12-04T09:38:27.253Z,62.30
2022-12-04T09:40:57.108Z,57.87
2022-12-04T09:43:28.694Z,57.47
2022-12-04T09:45:58.041Z,61.37
2022-12-04T09:48:28.693Z,55.53
2022-12-04T09:50:57.127Z,55.00
2022-12-04T09:53:27.101Z,57.83
2022-12-04T09:55:56.716Z,53.90
2022-12-04T09:58:25.888Z,56.80
2022-12-04T10:00:54.567Z,65.27
2022-12-04T10:03:23.481Z,56.10
2022-12-04T10:05:55.276Z,59.00
2022-12-04T10:08:24.534Z,59.53
2022-12-04T10:10:58.584Z,56.87
2022-12-04T10:13:32.790Z,55.33
2022-12-04T10:16:02.683Z,59.00
2022-12-04T10:18:34.326Z,62.77
2022-12-04T10:21:07.709Z,55.50
2022-12-04T10:23:38.863Z,57.53
2022-12-04T10:26:07.452Z,55.60
2022-12-04T10:28:36.775Z,54.27
2022-12-04T10:31:05.703Z,59.27
2022-12-04T10:33:35.807Z,55.17
2022-12-04T10:36:05.984Z,61.90
2022-12-04T10:38:36.686Z,56.30
2022-12-04T10:41:10.271Z,58.70
2022-12-04T10:43:44.071Z,56.97
2022-12-04T10:46:13.071Z,53.47
2022-12-04T10:48:41.684Z,58.20
2022-12-04T10:51:13.675Z,57.07
2022-12-04T10:53:42.484Z,62.07
2022-12-04T10:56:11.944Z,55.50
2022-12-04T10:58:40.314Z,60.13
2022-12-04T11:01:09.403Z,53.77
2022-12-04T11:03:38.074Z,53.13
2022-12-04T11:06:06.716Z,55.30
2022-12-04T11:08:37.247Z,58.33
2022-12-04T11:11:06.471Z,51.53
2022-12-04T11:13:35.103Z,51.93
2022-12-04T11:16:03.461Z,50.83
2022-12-04T11:18:32.738Z,54.23
2022-12-04T11:21:01.612Z,57.13
2022-12-04T11:23:31.089Z,55.70
2022-12-04T11:26:05.859Z,48.73
2022-12-04T11:28:41.599Z,50.00
2022-12-04T11:31:11.180Z,48.23
2022-12-04T11:33:41.099Z,48.97
2022-12-04T11:36:15.836Z,47.40
2022-12-04T11:38:44.135Z,47.37
2022-12-04T11:41:24.049Z,44.20
2022-12-04T11:43:56.714Z,46.57
2022-12-04T11:46:28.555Z,43.30
2022-12-04T11:48:56.939Z,43.33
2022-12-04T11:51:28.020Z,40.93
2022-12-04T11:53:57.858Z,41.73
2022-12-04T11:56:28.866Z,40.00
2022-12-04T11:59:00.584Z,38.80
2022-12-04T12:01:32.683Z,44.07
2022-12-04T12:04:09.679Z,36.80
2022-12-04T12:06:38.387Z,41.40
2022-12-04T12:09:12.901Z,41.53
2022-12-04T12:11:43.406Z,39.40
2022-12-04T12:14:14.505Z,43.07
2022-12-04T12:19:30.295Z,44.60
2022-12-04T12:22:05.377Z,38.20
2022-12-04T12:24:36.276Z,36.53
2022-12-04T12:27:09.500Z,45.43
2022-12-04T12:29:40.542Z,38.47
2022-12-04T12:32:13.473Z,41.00
2022-12-04T12:34:42.483Z,42.60
2022-12-04T12:37:16.197Z,44.97
2022-12-04T12:39:45.414Z,50.20
2022-12-04T12:42:16.830Z,44.57
2022-12-04T12:44:47.291Z,39.23
2022-12-04T12:47:16.966Z,43.67
2022-12-04T12:49:47.679Z,43.23
2022-12-04T12:52:17.402Z,46.87
2022-12-04T12:54:46.147Z,44.63
2022-12-04T12:57:17.343Z,44.00
2022-12-04T12:59:48.062Z,44.13
2022-12-04T13:02:28.447Z,41.07
2022-12-04T13:04:57.690Z,39.50
2022-12-04T13:07:28.226Z,42.30
2022-12-04T13:09:58.451Z,41.30
2022-12-04T13:12:28.464Z,43.37
2022-12-04T13:14:56.754Z,41.33
2022-12-04T13:17:27.327Z,42.37
2022-12-04T13:19:56.807Z,39.70
2022-12-04T13:22:28.600Z,39.77
2022-12-04T13:25:15.702Z,44.13
2022-12-04T13:27:48.884Z,40.23
2022-12-04T13:30:17.980Z,38.83
2022-12-04T13:32:51.292Z,38.77
2022-12-04T13:35:21.432Z,43.93
2022-12-04T13:37:56.408Z,40.67
2022-12-04T13:40:34.947Z,35.60
2022-12-04T13:43:27.234Z,39.17
2022-12-04T13:45:56.290Z,37.27
2022-12-04T13:48:45.651Z,36.67
2022-12-04T13:51:41.141Z,38.40
2022-12-04T13:54:22.353Z,34.80
2022-12-04T13:56:51.207Z,32.03
2022-12-04T13:59:25.259Z,32.30
2022-12-04T14:01:54.185Z,34.63
2022-12-04T14:04:25.381Z,33.97
2022-12-04T14:06:53.661Z,32.10
2022-12-04T14:09:27.038Z,31.23
2022-12-04T14:11:56.253Z,35.20
2022-12-04T14:14:27.687Z,32.47
2022-12-04T14:16:56.490Z,35.63
2022-12-04T14:19:32.502Z,29.27
2022-12-04T14:22:00.950Z,29.60
2022-12-04T14:24:30.961Z,31.80
2022-12-04T14:27:14.592Z,29.67
2022-12-04T14:29:46.409Z,30.87
2022-12-04T14:32:18.500Z,31.93
2022-12-04T14:34:48.136Z,25.93
2022-12-04T14:37:20.869Z,27.97
2022-12-04T14:39:49.414Z,29.37
2022-12-04T14:42:18.279Z,27.13
2022-12-04T14:44:48.378Z,29.37
2022-12-04T14:47:20.212Z,29.13
2022-12-04T14:49:55.611Z,26.40
2022-12-04T14:52:25.982Z,29.30
2022-12-04T14:54:55.536Z,28.53
2022-12-04T14:57:31.902Z,29.27
2022-12-04T15:00:01.708Z,26.53
2022-12-04T15:02:30.812Z,25.37
2022-12-04T15:04:59.736Z,25.23
2022-12-04T15:07:29.822Z,27.27
2022-12-04T15:10:16.830Z,25.73
2022-12-04T15:12:47.297Z,24.40
2022-12-04T15:15:19.561Z,25.00
2022-12-04T15:18:05.831Z,28.67
2022-12-04T15:20:38.805Z,26.93
2022-12-04T15:23:07.714Z,25.33
2022-12-04T15:25:37.231Z,26.23
2022-12-04T15:28:07.985Z,25.07
2022-12-04T15:30:38.418Z,26.60
2022-12-04T15:33:07.724Z,23.53
2022-12-04T15:35:36.024Z,27.97
2022-12-04T15:38:05.855Z,28.23
2022-12-04T15:40:35.671Z,27.60
2022-12-04T15:43:17.034Z,27.37
2022-12-04T15:45:47.201Z,29.80
2022-12-04T15:48:25.019Z,25.43
2022-12-04T15:50:57.344Z,28.73
2022-12-04T15:53:26.735Z,29.30
2022-12-04T15:55:55.987Z,27.67
2022-12-04T15:58:25.170Z,27.03
2022-12-04T16:00:57.235Z,27.43
2022-12-04T16:03:30.286Z,29.90
2022-12-04T16:06:08.474Z,28.73
2022-12-04T16:08:40.250Z,26.70
2022-12-04T16:11:12.374Z,28.17
2022-12-04T16:13:44.016Z,30.87
2022-12-04T16:16:15.002Z,29.83
2022-12-04T16:18:45.610Z,27.87
2022-12-04T16:21:18.980Z,28.57
2022-12-04T16:23:49.635Z,29.07
2022-12-04T16:26:21.737Z,28.40
2022-12-04T16:28:57.761Z,26.87
2022-12-04T16:31:32.729Z,33.07
2022-12-04T16:34:02.856Z,28.87
2022-12-04T16:36:32.778Z,33.47
2022-12-04T16:39:05.450Z,34.43
2022-12-04T16:41:34.547Z,32.30
2022-12-04T16:44:05.535Z,35.57
2022-12-04T16:46:39.099Z,36.13
2022-12-04T16:49:08.265Z,37.67
2022-12-04T16:51:38.817Z,34.40
2022-12-04T16:54:07.523Z,34.97
2022-12-04T16:56:37.083Z,40.37
2022-12-04T16:59:11.691Z,36.83
2022-12-04T17:01:45.067Z,39.10
2022-12-04T17:04:13.707Z,42.67
2022-12-04T17:06:44.675Z,45.47
2022-12-04T17:09:13.201Z,42.93
2022-12-04T17:11:41.905Z,45.30
2022-12-04T17:14:10.374Z,42.80
2022-12-04T17:16:39.213Z,46.33
2022-12-04T17:19:09.043Z,47.17
2022-12-04T17:21:37.551Z,41.50
2022-12-04T17:24:06.202Z,43.77
2022-12-04T17:26:34.512Z,43.10
2022-12-04T17:29:02.860Z,46.97
2022-12-04T17:31:31.346Z,49.37
2022-12-04T17:33:59.806Z,43.67
2022-12-04T17:36:29.691Z,47.10
2022-12-04T17:38:58.331Z,50.10
2022-12-04T17:41:27.132Z,51.77
2022-12-04T17:43:55.444Z,46.20
2022-12-04T17:46:24.776Z,48.00
2022-12-04T17:48:53.386Z,44.20
2022-12-04T17:51:22.328Z,48.57
2022-12-04T17:53:52.035Z,55.70
2022-12-04T17:56:21.020Z,44.63
2022-12-04T17:58:49.561Z,46.57
2022-12-04T18:01:18.650Z,49.33
2022-12-04T18:03:50.877Z,52.90
2022-12-04T18:06:19.850Z,47.23
2022-12-04T18:08:50.310Z,50.60
2022-12-04T18:11:21.001Z,52.13
2022-12-04T18:13:49.568Z,49.70
2022-12-04T18:16:18.039Z,50.63
2022-12-04T18:18:47.696Z,48.43
2022-12-04T18:21:16.133Z,51.77
2022-12-04T18:23:45.997Z,48.43
2022-12-04T18:26:15.359Z,46.03
2022-12-04T18:28:45.385Z,46.63
2022-12-04T18:31:13.935Z,48.03
2022-12-04T18:33:42.422Z,46.93
2022-12-04T18:36:14.324Z,45.57
2022-12-04T18:38:43.715Z,42.47
2022-12-04T18:41:12.867Z,46.03
2022-12-04T18:43:42.124Z,51.70
2022-12-04T18:46:12.951Z,46.87
2022-12-04T18:48:41.844Z,45.53
2022-12-04T18:51:17.508Z,49.03
2022-12-04T18:53:45.979Z,44.30
2022-12-04T18:56:15.646Z,48.63
2022-12-04T18:58:44.634Z,46.00
2022-12-04T19:01:15.116Z,47.37
2022-12-04T19:03:43.471Z,47.63
2022-12-04T19:06:12.249Z,50.27
2022-12-04T19:08:43.234Z,53.57
2022-12-04T19:11:13.169Z,48.77
2022-12-04T19:13:41.548Z,51.03
2022-12-04T19:16:13.733Z,49.03
2022-12-04T19:18:42.267Z,50.23
2022-12-04T19:21:11.810Z,49.93
2022-12-04T19:23:40.384Z,43.83
2022-12-04T19:26:08.797Z,48.57
2022-12-04T19:28:37.552Z,47.10
2022-12-04T19:31:10.228Z,46.70
2022-12-04T19:33:40.115Z,46.17
2022-12-04T19:36:09.014Z,45.97
2022-12-04T19:38:37.840Z,45.60
2022-12-04T19:41:08.340Z,45.37
2022-12-04T19:43:38.412Z,48.87
2022-12-04T19:46:07.438Z,48.03
2022-12-04T19:48:37.808Z,46.20
2022-12-04T19:51:08.130Z,41.37
2022-12-04T19:53:40.868Z,45.27
2022-12-04T19:56:10.659Z,43.47
2022-12-04T19:58:39.163Z,42.93
2022-12-04T20:01:08.244Z,44.37
2022-12-04T20:03:36.621Z,40.70
2022-12-04T20:06:05.050Z,45.97
2022-12-04T20:08:34.743Z,41.10
2022-12-04T20:11:03.847Z,43.33
2022-12-04T20:13:32.340Z,39.77
2022-12-04T20:16:02.804Z,43.33
2022-12-04T20:18:31.182Z,39.30
2022-12-04T20:21:00.029Z,43.77
2022-12-04T20:23:28.931Z,42.50
2022-12-04T20:25:58.942Z,41.40
2022-12-04T20:28:27.326Z,41.83
2022-12-04T20:30:55.795Z,41.17
2022-12-04T20:33:24.574Z,41.60
2022-12-04T20:35:53.720Z,41.77
2022-12-04T20:38:22.048Z,38.03
2022-12-04T20:40:50.328Z,37.00
2022-12-04T20:43:20.450Z,38.17
2022-12-04T20:45:48.848Z,42.00
2022-12-04T20:48:17.565Z,39.17
2022-12-04T20:50:46.399Z,41.83
2022-12-04T20:53:15.028Z,39.97
2022-12-04T20:55:43.618Z,38.70
2022-12-04T20:58:12.100Z,39.93
2022-12-04T21:00:41.988Z,39.20
2022-12-04T21:03:10.369Z,40.40
2022-12-04T21:05:38.744Z,39.70
2022-12-04T21:08:08.477Z,39.30
2022-12-04T21:10:37.048Z,42.47
2022-12-04T21:13:23.071Z,44.13
2022-12-04T21:16:02.474Z,41.10
2022-12-04T21:18:30.957Z,42.33
2022-12-04T21:20:59.328Z,41.90
2022-12-04T21:23:27.749Z,42.30
2022-12-04T21:25:57.015Z,41.93
2022-12-04T21:28:25.847Z,44.80
2022-12-04T21:30:56.013Z,43.50
2022-12-04T21:33:24.537Z,46.87
2022-12-04T21:35:53.325Z,44.67
2022-12-04T21:38:21.644Z,47.70
2022-12-04T21:40:50.478Z,47.60
2022-12-04T21:43:18.877Z,48.37
2022-12-04T21:45:48.703Z,49.20
2022-12-04T21:48:18.463Z,50.07
2022-12-04T21:50:46.889Z,50.43
2022-12-04T21:53:15.438Z,47.67
2022-12-04T21:55:47.771Z,51.27
2022-12-04T21:58:16.309Z,49.80
2022-12-04T22:00:44.720Z,50.93
2022-12-04T22:03:14.595Z,51.73
2022-12-04T22:05:44.519Z,52.30
2022-12-04T22:08:14.121Z,52.60
2022-12-04T22:10:43.279Z,51.83
2022-12-04T22:13:12.712Z,50.10
2022-12-04T22:15:41.509Z,49.47
2022-12-04T22:18:09.948Z,49.23
2022-12-04T22:20:39.615Z,51.53
2022-12-04T22:23:09.343Z,47.83
2022-12-04T22:25:38.654Z,53.00
2022-12-04T22:28:07.229Z,47.33
2022-12-04T22:30:36.308Z,48.57
2022-12-04T22:33:04.881Z,53.40
2022-12-04T22:35:33.915Z,50.90
2022-12-04T22:38:02.507Z,59.30
2022-12-04T22:40:32.324Z,55.53
2022-12-04T22:43:00.665Z,57.07
2022-12-04T22:45:29.287Z,54.23
2022-12-04T22:47:57.668Z,58.30
2022-12-04T22:50:25.988Z,52.20
2022-12-04T22:52:54.423Z,58.07
2022-12-04T22:55:22.795Z,57.13
2022-12-04T22:57:52.559Z,60.07
2022-12-04T23:00:21.179Z,55.13
2022-12-04T23:02:49.574Z,56.43
2022-12-04T23:05:18.227Z,58.80
2022-12-04T23:07:46.770Z,59.30
2022-12-04T23:10:15.216Z,59.47
2022-12-04T23:12:43.622Z,57.10
2022-12-04T23:15:13.697Z,60.87
2022-12-04T23:17:42.503Z,67.27
2022-12-04T23:20:11.088Z,60.83
2022-12-04T23:22:39.587Z,56.73
2022-12-04T23:25:08.612Z,60.13
2022-12-04T23:27:37.054Z,59.10
2022-12-04T23:30:06.297Z,58.47
2022-12-04T23:32:36.196Z,52.90
2022-12-04T23:35:04.611Z,55.07
2022-12-04T23:37:33.029Z,55.97
2022-12-04T23:40:01.517Z,50.27
2022-12-04T23:42:32.179Z,51.77
2022-12-04T23:45:01.003Z,56.27
2022-12-04T23:47:29.429Z,54.83
2022-12-04T23:49:59.592Z,52.83
2022-12-04T23:52:28.376Z,49.03
2022-12-04T23:54:56.798Z,53.40
2022-12-04T23:57:25.229Z,53.50
2022-12-04T23:59:54.506Z,54.23
